Time;durP1;ratioP1;P1;durP2;ratioP2;P2;SDS_P1;SDS_P2;PMS_P1;PMS_P2;Temp;Humidity;BMP_temperature;BMP_pressure;BME280_temperature;BME280_humidity;BME280_pressure;Samples;Min_cycle;Max_cycle;Signal;HPM_P1;HPM_P2
2022/03/03 00:01:51;;;;;;;;;;;;;;;18.07;37.03;100466.41;5077381;28;900;-65
2022/03/03 00:04:17;;;;;;;;;;;;;;;17.58;37.79;100465.44;5077857;28;796;-65
2022/03/03 00:06:42;;;;;;;;;;;;;;;17.16;38.82;100464.13;5075939;28;904;-65
2022/03/03 00:09:07;;;;;;;;;;;;;;;16.86;39.11;100468.69;5077823;28;1985;-65
2022/03/03 00:11:33;;;;;;;;;;;;;;;16.96;39.50;100457.66;5077185;28;996;-65
2022/03/03 00:13:59;;;;;;;;;;;;;;;18.20;36.90;100459.38;5077997;28;1340;-68
2022/03/03 00:16:25;;;;;;;;;;;;;;;18.37;36.25;100470.75;5076906;28;1232;-66
2022/03/03 00:18:50;;;;;;;;;;;;;;;17.67;37.87;100463.72;5077398;28;833;-64
2022/03/03 00:21:16;;;;;;;;;;;;;;;17.14;38.91;100458.06;5077276;28;828;-64
2022/03/03 00:23:41;;;;;;;;;;;;;;;16.87;39.41;100460.16;5077432;28;838;-66
2022/03/03 00:26:07;;;;;;;;;;;;;;;16.72;40.33;100461.03;5077536;28;860;-67
2022/03/03 00:28:32;;;;;;;;;;;;;;;18.22;36.64;100468.19;5077634;28;1969;-67
2022/03/03 00:30:58;;;;;;;;;;;;;;;17.70;37.90;100459.59;5076872;28;828;-66
2022/03/03 00:33:23;;;;;;;;;;;;;;;17.25;38.56;100459.66;5077086;28;844;-68
2022/03/03 00:35:49;;;;;;;;;;;;;;;17.13;38.77;100470.19;5076977;28;865;-65
2022/03/03 00:38:14;;;;;;;;;;;;;;;16.79;39.14;100462.66;5077082;28;750;-65
2022/03/03 00:40:40;;;;;;;;;;;;;;;17.29;38.79;100471.72;5077499;28;761;-64
2022/03/03 00:43:06;;;;;;;;;;;;;;;17.74;37.75;100469.72;5076903;28;817;-64
2022/03/03 00:45:35;;;;;;;;;;;;;;;17.95;37.34;100483.31;5076391;28;867;-64
2022/03/03 00:48:01;;;;;;;;;;;;;;;17.83;37.38;100491.91;5077239;28;1968;-64
2022/03/03 00:50:26;;;;;;;;;;;;;;;17.45;38.04;100480.69;5077100;28;797;-64
2022/03/03 00:52:52;;;;;;;;;;;;;;;17.23;38.46;100481.09;5076532;28;920;-64
2022/03/03 00:55:17;;;;;;;;;;;;;;;16.99;39.23;100483.75;5076197;28;817;-65
2022/03/03 00:57:42;;;;;;;;;;;;;;;17.06;38.93;100484.25;5076509;28;784;-65
2022/03/03 01:00:08;;;;;;;;;;;;;;;17.08;39.04;100480.13;5076830;28;750;-64
2022/03/03 01:02:33;;;;;;;;;;;;;;;17.16;38.82;100475.13;5076167;28;993;-64
2022/03/03 01:04:59;;;;;;;;;;;;;;;17.18;38.81;100478.38;5076746;28;860;-64
2022/03/03 01:07:24;;;;;;;;;;;;;;;17.08;38.89;100471.88;5076588;28;1926;-64
2022/03/03 01:09:50;;;;;;;;;;;;;;;17.16;39.03;100480.63;5075987;28;825;-64
2022/03/03 01:12:15;;;;;;;;;;;;;;;17.12;38.88;100468.53;5076406;28;829;-65
2022/03/03 01:14:41;;;;;;;;;;;;;;;16.88;39.43;100480.19;5076025;28;1170;-64
2022/03/03 01:17:06;;;;;;;;;;;;;;;16.82;39.53;100460.16;5076281;28;857;-68
2022/03/03 01:19:31;;;;;;;;;;;;;;;17.01;38.76;100465.88;5076576;28;793;-68
2022/03/03 01:21:57;;;;;;;;;;;;;;;17.01;38.90;100457.63;5076046;28;906;-67
2022/03/03 01:24:23;;;;;;;;;;;;;;;17.01;39.22;100456.78;5075969;28;903;-66
2022/03/03 01:26:48;;;;;;;;;;;;;;;17.16;38.75;100453.13;5076141;28;773;-65
2022/03/03 01:29:13;;;;;;;;;;;;;;;17.19;38.54;100458.88;5075866;28;1967;-65
2022/03/03 01:31:39;;;;;;;;;;;;;;;17.30;38.30;100454.13;5075697;28;895;-65
2022/03/03 01:34:06;;;;;;;;;;;;;;;16.95;38.85;100453.25;5076255;28;787;-66
2022/03/03 01:36:32;;;;;;;;;;;;;;;16.85;39.25;100439.56;5075567;28;798;-66
2022/03/03 01:38:57;;;;;;;;;;;;;;;16.62;40.27;100449.28;5075953;28;823;-65
2022/03/03 01:41:23;;;;;;;;;;;;;;;17.69;37.65;100447.75;5076250;28;946;-66
2022/03/03 01:43:48;;;;;;;;;;;;;;;17.36;38.00;100436.50;5075765;28;837;-66
2022/03/03 01:46:14;;;;;;;;;;;;;;;16.90;39.01;100447.78;5075450;28;835;-66
2022/03/03 01:48:39;;;;;;;;;;;;;;;16.74;39.69;100447.03;5075848;28;1969;-66
2022/03/03 01:51:04;;;;;;;;;;;;;;;18.41;36.02;100438.78;5076037;28;833;-66
2022/03/03 01:53:30;;;;;;;;;;;;;;;18.29;36.16;100441.13;5075590;28;802;-66
2022/03/03 01:55:55;;;;;;;;;;;;;;;17.58;37.63;100440.72;5076033;28;776;-65
2022/03/03 01:58:21;;;;;;;;;;;;;;;16.97;38.28;100439.25;5076267;28;777;-65
2022/03/03 02:00:49;;;;;;;;;;;;;;;16.69;39.52;100445.16;5074839;28;816;-65
2022/03/03 02:03:14;;;;;;;;;;;;;;;17.33;38.65;100448.06;5075972;28;930;-65
2022/03/03 02:05:40;;;;;;;;;;;;;;;17.52;37.88;100450.13;5075888;28;896;-65
2022/03/03 02:08:05;;;;;;;;;;;;;;;17.05;38.59;100457.88;5075559;28;1902;-65
2022/03/03 02:10:31;;;;;;;;;;;;;;;16.82;39.34;100454.69;5108056;28;959;-65
2022/03/03 02:12:56;;;;;;;;;;;;;;;16.64;38.88;100453.41;5108182;28;1508;-66
2022/03/03 02:15:22;;;;;;;;;;;;;;;17.44;38.16;100457.03;5074880;28;1135;-65
2022/03/03 02:17:48;;;;;;;;;;;;;;;17.38;37.92;100445.28;5076178;28;818;-65
2022/03/03 02:20:23;;;;;;;;;;;;;;;16.96;39.19;100449.41;5076153;28;889;-66
2022/03/03 02:22:51;;;;;;;;;;;;;;;16.89;38.89;100444.22;5075383;28;832;-65
2022/03/03 02:25:17;;;;;;;;;;;;;;;16.83;39.25;100442.59;5075731;28;825;-64
2022/03/03 02:27:43;;;;;;;;;;;;;;;17.33;37.87;100452.75;5074912;28;1971;-65
2022/03/03 02:30:08;;;;;;;;;;;;;;;16.93;38.89;100456.28;5075352;28;832;-66
2022/03/03 02:32:34;;;;;;;;;;;;;;;16.63;39.76;100454.50;5075483;28;846;-65
2022/03/03 02:34:59;;;;;;;;;;;;;;;16.60;39.74;100450.38;5075700;28;796;-63
2022/03/03 02:37:30;;;;;;;;;;;;;;;17.00;38.96;100455.97;5075277;28;731;-66
2022/03/03 02:39:55;;;;;;;;;;;;;;;17.35;38.11;100456.00;5075311;28;849;-66
2022/03/03 02:42:21;;;;;;;;;;;;;;;17.75;37.46;100449.38;5075405;28;808;-66
2022/03/03 02:44:46;;;;;;;;;;;;;;;17.97;36.59;100450.81;5075197;28;753;-64
2022/03/03 02:47:11;;;;;;;;;;;;;;;18.01;36.69;100435.38;5074808;28;1975;-64
2022/03/03 02:49:37;;;;;;;;;;;;;;;17.50;37.62;100442.16;5075313;28;1422;-64
2022/03/03 02:52:02;;;;;;;;;;;;;;;17.00;38.80;100438.66;5075159;28;819;-66
2022/03/03 02:54:28;;;;;;;;;;;;;;;16.75;39.20;100438.50;5074918;28;879;-64
2022/03/03 02:59:37;;;;;;;;;;;;;;;17.39;38.21;100446.06;5075176;28;945;-64
2022/03/03 03:02:02;;;;;;;;;;;;;;;17.42;37.77;100437.28;5074651;28;835;-64
2022/03/03 03:04:28;;;;;;;;;;;;;;;17.17;38.35;100449.28;5074901;28;789;-65
2022/03/03 03:06:53;;;;;;;;;;;;;;;16.86;38.90;100441.22;5074850;28;873;-65
2022/03/03 03:09:19;;;;;;;;;;;;;;;16.71;39.50;100442.91;5075478;28;1979;-65
2022/03/03 03:11:44;;;;;;;;;;;;;;;17.17;38.33;100436.38;5075230;28;783;-65
2022/03/03 03:14:10;;;;;;;;;;;;;;;16.80;39.22;100434.09;5074692;28;889;-64
2022/03/03 03:16:35;;;;;;;;;;;;;;;16.71;39.38;100436.63;5074591;28;990;-65
2022/03/03 03:19:00;;;;;;;;;;;;;;;16.62;39.52;100436.41;5076786;28;869;-64
2022/03/03 03:21:26;;;;;;;;;;;;;;;16.47;39.84;100434.53;5078377;28;793;-64
2022/03/03 03:23:52;;;;;;;;;;;;;;;17.44;38.11;100443.31;5078362;28;883;-64
2022/03/03 03:26:18;;;;;;;;;;;;;;;17.09;38.45;100436.97;5078639;28;811;-64
2022/03/03 03:28:43;;;;;;;;;;;;;;;16.82;39.05;100438.19;5078433;28;1972;-64
2022/03/03 03:31:08;;;;;;;;;;;;;;;16.40;39.40;100437.56;5077971;28;889;-64
2022/03/03 03:33:34;;;;;;;;;;;;;;;17.19;38.49;100445.13;5079039;28;920;-67
2022/03/03 03:35:59;;;;;;;;;;;;;;;17.73;36.99;100446.06;5078013;28;1051;-66
2022/03/03 03:38:25;;;;;;;;;;;;;;;17.33;37.77;100437.06;5077165;28;852;-66
2022/03/03 03:40:50;;;;;;;;;;;;;;;16.95;38.79;100442.28;5077241;28;1158;-65
2022/03/03 03:43:16;;;;;;;;;;;;;;;16.89;38.66;100443.41;5077737;28;800;-66
2022/03/03 03:45:41;;;;;;;;;;;;;;;17.44;37.93;100443.31;5078010;28;897;-65
2022/03/03 03:48:06;;;;;;;;;;;;;;;17.55;37.60;100457.78;5077985;28;1905;-65
2022/03/03 03:50:32;;;;;;;;;;;;;;;17.17;38.14;100454.78;5078230;28;709;-65
2022/03/03 03:52:57;;;;;;;;;;;;;;;16.85;38.55;100447.81;5078503;28;793;-64
2022/03/03 03:55:23;;;;;;;;;;;;;;;16.71;39.11;100448.41;5077787;28;833;-65
2022/03/03 03:57:48;;;;;;;;;;;;;;;17.28;37.96;100439.88;5078010;28;836;-64
2022/03/03 04:00:14;;;;;;;;;;;;;;;17.18;38.18;100439.91;5077926;28;856;-63
2022/03/03 04:02:40;;;;;;;;;;;;;;;16.81;38.99;100443.97;5078027;28;834;-65
2022/03/03 04:05:06;;;;;;;;;;;;;;;16.73;39.15;100440.72;5077309;28;857;-64
2022/03/03 04:07:32;;;;;;;;;;;;;;;16.69;39.19;100445.16;5077533;28;1987;-64
2022/03/03 04:09:57;;;;;;;;;;;;;;;16.69;39.32;100438.81;5078009;28;877;-65
2022/03/03 04:12:22;;;;;;;;;;;;;;;16.83;38.90;100445.34;5077234;28;818;-64
2022/03/03 04:14:48;;;;;;;;;;;;;;;17.08;38.41;100435.31;5077703;28;1145;-64
2022/03/03 04:17:13;;;;;;;;;;;;;;;17.16;38.13;100439.41;5077697;28;1023;-65
2022/03/03 04:19:39;;;;;;;;;;;;;;;17.78;37.05;100440.53;5077576;28;769;-66
2022/03/03 04:22:05;;;;;;;;;;;;;;;18.00;36.59;100439.22;5077091;28;853;-65
2022/03/03 04:24:30;;;;;;;;;;;;;;;17.69;36.92;100444.19;5077939;28;899;-66
2022/03/03 04:26:56;;;;;;;;;;;;;;;17.20;37.79;100446.78;5077175;28;1415;-66
2022/03/03 04:29:22;;;;;;;;;;;;;;;16.97;38.61;100440.06;5076809;28;1906;-65
2022/03/03 04:31:49;;;;;;;;;;;;;;;16.78;38.72;100445.38;5076512;28;863;-65
2022/03/03 04:34:14;;;;;;;;;;;;;;;16.59;39.35;100440.53;5109106;28;1662;-65
2022/03/03 04:36:39;;;;;;;;;;;;;;;17.92;36.93;100434.34;5077335;28;826;-65
2022/03/03 04:39:05;;;;;;;;;;;;;;;17.87;36.61;100439.91;5077534;28;770;-65
2022/03/03 04:41:30;;;;;;;;;;;;;;;17.25;37.93;100443.16;5077240;28;1017;-66
2022/03/03 04:43:56;;;;;;;;;;;;;;;17.68;37.36;100448.03;5077012;28;917;-65
2022/03/03 04:46:21;;;;;;;;;;;;;;;18.73;35.13;100444.69;5076060;28;949;-61
2022/03/03 04:48:47;;;;;;;;;;;;;;;18.37;35.43;100437.72;5077550;28;1906;-61
2022/03/03 04:51:12;;;;;;;;;;;;;;;17.59;37.00;100443.16;5074847;28;1363;-61
2022/03/03 04:53:37;;;;;;;;;;;;;;;17.86;36.91;100450.06;5076418;28;1384;-63
2022/03/03 04:56:03;;;;;;;;;;;;;;;18.13;36.43;100457.81;5076296;28;1373;-62
2022/03/03 04:58:28;;;;;;;;;;;;;;;18.11;36.31;100446.25;5075152;28;1146;-62
2022/03/03 05:00:54;;;;;;;;;;;;;;;17.64;36.93;100447.78;5075163;28;844;-62
2022/03/03 05:03:20;;;;;;;;;;;;;;;17.20;38.01;100448.72;5076519;28;817;-62
2022/03/03 05:05:45;;;;;;;;;;;;;;;16.99;38.68;100445.28;5076532;28;1150;-67
2022/03/03 05:08:11;;;;;;;;;;;;;;;17.30;38.21;100442.31;5076482;28;1894;-65
2022/03/03 05:10:36;;;;;;;;;;;;;;;18.58;35.35;100449.31;5075018;28;876;-65
2022/03/03 05:13:02;;;;;;;;;;;;;;;18.23;35.82;100458.78;5075412;28;1546;-65
2022/03/03 05:15:27;;;;;;;;;;;;;;;17.45;37.59;100451.25;5076331;28;1005;-65
2022/03/03 05:17:53;;;;;;;;;;;;;;;17.13;38.29;100461.94;5076213;28;880;-67
2022/03/03 05:20:18;;;;;;;;;;;;;;;17.00;38.65;100453.25;5076307;28;781;-67
2022/03/03 05:22:43;;;;;;;;;;;;;;;17.77;36.94;100457.31;5076481;28;820;-66
2022/03/03 05:25:10;;;;;;;;;;;;;;;18.56;35.40;100456.22;5076410;28;908;-66
2022/03/03 05:27:36;;;;;;;;;;;;;;;18.53;35.65;100457.63;5075855;28;1909;-66
2022/03/03 05:30:02;;;;;;;;;;;;;;;18.49;35.38;100466.78;5076157;28;842;-66
2022/03/03 05:32:27;;;;;;;;;;;;;;;18.32;35.84;100462.56;5076086;28;878;-67
2022/03/03 05:34:53;;;;;;;;;;;;;;;17.89;36.83;100459.66;5076499;28;1147;-66
2022/03/03 05:37:20;;;;;;;;;;;;;;;17.67;37.05;100469.22;5075845;28;807;-66
2022/03/03 05:39:46;;;;;;;;;;;;;;;17.50;37.28;100463.31;5076035;28;778;-66
2022/03/03 05:42:12;;;;;;;;;;;;;;;17.44;37.69;100466.09;5076092;28;837;-66
2022/03/03 05:44:37;;;;;;;;;;;;;;;17.53;37.33;100460.81;5075756;28;1054;-66
2022/03/03 05:47:03;;;;;;;;;;;;;;;17.50;37.56;100469.66;5075665;28;1019;-67
2022/03/03 05:49:29;;;;;;;;;;;;;;;17.56;37.46;100467.69;5075663;28;1956;-66
2022/03/03 05:51:54;;;;;;;;;;;;;;;17.71;37.05;100475.81;5075630;28;836;-66
2022/03/03 05:54:20;;;;;;;;;;;;;;;18.10;36.54;100461.16;5076187;28;724;-66
2022/03/03 05:56:45;;;;;;;;;;;;;;;18.08;36.31;100474.38;5075628;28;904;-66
2022/03/03 05:59:12;;;;;;;;;;;;;;;17.92;36.49;100473.72;5108003;28;1105;-65
2022/03/03 06:01:38;;;;;;;;;;;;;;;17.80;36.85;100473.25;5107929;28;1081;-67
2022/03/03 06:04:03;;;;;;;;;;;;;;;17.60;37.26;100477.00;5107803;28;1398;-66
2022/03/03 06:06:31;;;;;;;;;;;;;;;17.43;37.78;100486.47;5075800;28;723;-66
2022/03/03 06:09:02;;;;;;;;;;;;;;;17.77;36.97;100485.63;5075869;28;1905;-66
2022/03/03 06:11:27;;;;;;;;;;;;;;;18.06;36.44;100493.09;5075589;28;877;-67
2022/03/03 06:13:53;;;;;;;;;;;;;;;18.23;36.01;100497.31;5073647;28;1509;-68
2022/03/03 06:16:19;;;;;;;;;;;;;;;18.32;36.13;100495.59;5071260;28;1257;-66
2022/03/03 06:18:44;;;;;;;;;;;;;;;18.38;35.70;100490.84;5070031;28;1173;-67
2022/03/03 06:21:10;;;;;;;;;;;;;;;18.53;35.58;100496.16;5073359;28;1300;-68
2022/03/03 06:23:35;;;;;;;;;;;;;;;18.58;35.61;100487.00;5073001;28;1194;-68
2022/03/03 06:26:04;;;;;;;;;;;;;;;18.59;35.38;100495.00;5075035;28;1415;-68
2022/03/03 06:28:30;;;;;;;;;;;;;;;18.66;35.36;100494.63;5074110;28;1985;-68
2022/03/03 06:30:56;;;;;;;;;;;;;;;18.66;35.36;100493.81;5071342;28;1264;-67
2022/03/03 06:33:21;;;;;;;;;;;;;;;18.59;35.58;100489.50;5074673;28;1335;-67
2022/03/03 06:35:46;;;;;;;;;;;;;;;18.45;35.97;100486.63;5075040;28;1324;-67
2022/03/03 06:38:12;;;;;;;;;;;;;;;18.25;36.25;100495.91;5073685;28;1304;-66
2022/03/03 06:40:38;;;;;;;;;;;;;;;17.92;36.70;100494.88;5074907;28;1115;-67
2022/03/03 06:43:03;;;;;;;;;;;;;;;17.55;37.39;100499.03;5073884;28;1230;-66
2022/03/03 06:45:29;;;;;;;;;;;;;;;17.57;37.36;100505.03;5074356;28;1103;-65
2022/03/03 06:47:55;;;;;;;;;;;;;;;17.42;37.86;100500.50;5073933;28;1989;-65
2022/03/03 06:50:20;;;;;;;;;;;;;;;17.83;37.22;100499.34;5074150;28;1321;-66
2022/03/03 06:52:46;;;;;;;;;;;;;;;18.12;36.37;100497.44;5075152;28;1352;-67
2022/03/03 06:55:13;;;;;;;;;;;;;;;18.26;36.07;100508.56;5077926;28;1534;-66
2022/03/03 06:57:38;;;;;;;;;;;;;;;18.38;35.81;100505.41;5110905;28;1372;-66
2022/03/03 07:00:04;;;;;;;;;;;;;;;18.52;35.56;100504.72;5109243;28;1237;-66
2022/03/03 07:02:30;;;;;;;;;;;;;;;18.61;35.24;100503.78;5078149;28;1181;-65
2022/03/03 07:04:55;;;;;;;;;;;;;;;18.64;35.46;100507.88;5079382;28;937;-65
2022/03/03 07:07:21;;;;;;;;;;;;;;;18.76;35.37;100502.78;5111248;28;1910;-64
2022/03/03 07:09:46;;;;;;;;;;;;;;;18.83;35.07;100507.94;5077582;28;1162;-66
2022/03/03 07:12:12;;;;;;;;;;;;;;;18.76;35.32;100511.03;5111934;28;813;-67
2022/03/03 07:14:38;;;;;;;;;;;;;;;18.42;35.73;100517.47;5079212;28;1153;-68
2022/03/03 07:17:05;;;;;;;;;;;;;;;18.01;36.55;100528.09;5078441;28;1404;-68
2022/03/03 07:19:39;;;;;;;;;;;;;;;17.63;37.52;100523.16;5078566;28;804;-66
2022/03/03 07:22:25;;;;;;;;;;;;;;;17.36;37.72;100518.97;5078068;28;1170;-65
2022/03/03 07:25:10;;;;;;;;;;;;;;;17.25;38.13;100525.59;5077344;28;1371;-64
2022/03/03 07:27:39;;;;;;;;;;;;;;;17.58;37.65;100525.94;5072156;28;2011;-66
2022/03/03 07:30:09;;;;;;;;;;;;;;;18.37;36.18;100519.47;5077715;28;1282;-66
2022/03/03 07:32:39;;;;;;;;;;;;;;;18.75;35.14;100509.41;5076685;28;919;-65
2022/03/03 07:35:05;;;;;;;;;;;;;;;18.26;36.29;100518.78;5078613;28;769;-66
2022/03/03 07:37:34;;;;;;;;;;;;;;;17.95;36.62;100517.13;5078352;28;809;-67
2022/03/03 07:40:02;;;;;;;;;;;;;;;17.64;37.15;100529.47;5077734;28;953;-67
2022/03/03 07:42:27;;;;;;;;;;;;;;;17.57;37.61;100527.03;5078680;28;801;-66
2022/03/03 07:44:52;;;;;;;;;;;;;;;17.40;37.85;100522.78;5078652;28;788;-68
2022/03/03 07:47:18;;;;;;;;;;;;;;;17.39;37.72;100529.38;5109267;28;1976;-67
2022/03/03 07:49:44;;;;;;;;;;;;;;;17.83;37.13;100530.41;5111032;28;845;-66
2022/03/03 07:52:09;;;;;;;;;;;;;;;18.65;35.22;100523.31;5110201;28;822;-67
2022/03/03 07:54:34;;;;;;;;;;;;;;;18.77;35.18;100534.69;5078220;28;787;-67
2022/03/03 07:57:00;;;;;;;;;;;;;;;18.89;34.87;100533.50;5076007;28;1301;-65
2022/03/03 07:59:26;;;;;;;;;;;;;;;18.48;35.54;100532.00;5077969;28;877;-62
2022/03/03 08:01:54;;;;;;;;;;;;;;;17.95;36.55;100547.41;5072450;28;1314;-65
2022/03/03 08:04:19;;;;;;;;;;;;;;;17.35;37.70;100535.69;5071373;28;813;-66
2022/03/03 08:06:45;;;;;;;;;;;;;;;17.19;38.12;100524.00;5109689;28;1257;-67
2022/03/03 08:09:11;;;;;;;;;;;;;;;17.09;38.54;100531.19;5076347;28;1980;-65
2022/03/03 08:11:36;;;;;;;;;;;;;;;17.60;37.71;100530.06;5076111;28;1147;-67
2022/03/03 08:14:01;;;;;;;;;;;;;;;18.67;35.39;100523.00;5110567;28;974;-66
2022/03/03 08:16:27;;;;;;;;;;;;;;;18.93;34.70;100523.53;5076659;28;1363;-66
2022/03/03 08:18:53;;;;;;;;;;;;;;;18.27;35.94;100524.00;5076958;28;1202;-66
2022/03/03 08:21:18;;;;;;;;;;;;;;;17.76;37.29;100522.50;5076970;28;1174;-63
2022/03/03 08:23:44;;;;;;;;;;;;;;;17.36;37.96;100526.38;5077719;28;807;-64
2022/03/03 08:26:12;;;;;;;;;;;;;;;16.96;38.60;100520.84;5077731;28;781;-64
2022/03/03 08:28:41;;;;;;;;;;;;;;;17.16;38.44;100530.06;5107991;28;1906;-66
2022/03/03 08:31:06;;;;;;;;;;;;;;;18.18;36.20;100533.16;5077283;28;891;-67
2022/03/03 08:33:52;;;;;;;;;;;;;;;18.75;35.08;100531.44;5102406;28;1427;-66
2022/03/03 08:36:20;;;;;;;;;;;;;;;18.29;36.00;100526.44;5076184;28;1182;-65
2022/03/03 08:38:47;;;;;;;;;;;;;;;17.86;36.76;100532.59;5075197;28;1274;-64
2022/03/03 08:41:12;;;;;;;;;;;;;;;17.62;37.46;100544.31;5075623;28;1393;-64
2022/03/03 08:43:38;;;;;;;;;;;;;;;17.46;37.70;100529.06;5106685;28;1353;-63
2022/03/03 08:46:04;;;;;;;;;;;;;;;17.34;38.07;100532.16;5108544;28;1368;-66
2022/03/03 08:48:31;;;;;;;;;;;;;;;17.45;37.96;100530.97;5076028;28;1980;-67
2022/03/03 08:50:57;;;;;;;;;;;;;;;17.45;37.88;100528.22;5075433;28;1456;-65
2022/03/03 08:53:22;;;;;;;;;;;;;;;17.92;36.91;100531.47;5109164;28;1519;-65
2022/03/03 08:55:48;;;;;;;;;;;;;;;18.73;35.09;100522.66;5076888;28;879;-67
2022/03/03 08:58:14;;;;;;;;;;;;;;;19.25;34.18;100531.09;5077312;28;757;-66
2022/03/03 09:00:40;;;;;;;;;;;;;;;19.45;33.71;100531.91;5076036;28;890;-63
2022/03/03 09:03:05;;;;;;;;;;;;;;;19.05;34.58;100532.16;5075193;28;1361;-63
2022/03/03 09:05:30;;;;;;;;;;;;;;;18.34;36.05;100531.91;5076070;28;1244;-64
2022/03/03 09:07:56;;;;;;;;;;;;;;;17.99;36.77;100525.63;5076161;28;1902;-67
2022/03/03 09:10:22;;;;;;;;;;;;;;;17.69;37.46;100521.19;5076602;28;1531;-67
2022/03/03 09:12:47;;;;;;;;;;;;;;;17.63;37.60;100514.91;5076956;28;750;-68
2022/03/03 09:15:12;;;;;;;;;;;;;;;17.50;37.65;100530.13;5076219;28;1021;-66
2022/03/03 09:17:38;;;;;;;;;;;;;;;17.36;38.19;100521.72;5075417;28;1165;-65
2022/03/03 09:20:05;;;;;;;;;;;;;;;17.40;38.08;100522.78;5076845;28;835;-67
2022/03/03 09:22:31;;;;;;;;;;;;;;;17.52;37.68;100529.84;5076934;28;849;-67
2022/03/03 09:24:56;;;;;;;;;;;;;;;17.68;37.30;100525.84;5076458;28;924;-66
2022/03/03 09:27:22;;;;;;;;;;;;;;;17.77;37.11;100518.63;5075090;28;1910;-65
2022/03/03 09:29:48;;;;;;;;;;;;;;;17.85;37.12;100519.13;5075589;28;1162;-66
2022/03/03 09:32:13;;;;;;;;;;;;;;;17.81;37.30;100518.06;5076455;28;942;-66
2022/03/03 09:34:39;;;;;;;;;;;;;;;17.81;37.11;100523.56;5076458;28;1166;-65
2022/03/03 09:37:06;;;;;;;;;;;;;;;17.84;37.18;100520.22;5075795;28;1648;-65
2022/03/03 09:39:31;;;;;;;;;;;;;;;17.92;36.86;100533.38;5076335;28;827;-65
2022/03/03 09:41:57;;;;;;;;;;;;;;;17.93;36.88;100521.28;5076088;28;798;-66
2022/03/03 09:44:23;;;;;;;;;;;;;;;18.16;36.15;100516.13;5076171;28;742;-66
2022/03/03 09:46:48;;;;;;;;;;;;;;;18.02;36.51;100511.31;5076142;28;861;-66
2022/03/03 09:49:14;;;;;;;;;;;;;;;17.92;36.74;100514.13;5075878;28;1978;-66
2022/03/03 09:51:39;;;;;;;;;;;;;;;18.00;36.79;100509.94;5076065;28;827;-64
2022/03/03 09:54:05;;;;;;;;;;;;;;;17.98;36.71;100517.66;5075205;28;1257;-64
2022/03/03 09:56:31;;;;;;;;;;;;;;;17.91;36.97;100513.31;5073532;28;1098;-65
2022/03/03 09:58:56;;;;;;;;;;;;;;;18.07;36.42;100510.44;5075464;28;1060;-63
2022/03/03 10:01:22;;;;;;;;;;;;;;;17.97;36.74;100508.59;5075887;28;873;-62
2022/03/03 10:03:48;;;;;;;;;;;;;;;18.02;36.65;100505.81;5108285;28;1131;-62
2022/03/03 10:06:14;;;;;;;;;;;;;;;18.01;36.62;100508.84;5073284;28;1226;-62
2022/03/03 10:08:39;;;;;;;;;;;;;;;18.02;36.50;100507.72;5074927;28;1978;-62
2022/03/03 10:11:05;;;;;;;;;;;;;;;18.05;36.54;100502.47;5075902;28;1412;-62
2022/03/03 10:13:46;;;;;;;;;;;;;;;17.97;36.78;100494.84;5075445;28;1495;-62
2022/03/03 10:16:17;;;;;;;;;;;;;;;18.04;36.68;100506.31;5072257;28;1099;-66
2022/03/03 10:18:48;;;;;;;;;;;;;;;18.07;36.54;100493.91;5075488;28;829;-66
2022/03/03 10:21:14;;;;;;;;;;;;;;;18.06;36.42;100504.13;5076408;28;823;-66
2022/03/03 10:23:39;;;;;;;;;;;;;;;18.02;36.55;100499.47;5075611;28;817;-66
2022/03/03 10:26:08;;;;;;;;;;;;;;;18.24;36.11;100499.81;5075857;28;920;-68
2022/03/03 10:28:34;;;;;;;;;;;;;;;18.15;36.27;100496.03;5078790;28;1970;-67
2022/03/03 10:31:00;;;;;;;;;;;;;;;18.09;36.49;100495.28;5079193;28;828;-68
2022/03/03 10:33:30;;;;;;;;;;;;;;;18.30;36.15;100492.31;5080116;28;825;-69
2022/03/03 10:35:58;;;;;;;;;;;;;;;18.38;35.81;100488.09;5078817;28;1384;-67
2022/03/03 10:38:24;;;;;;;;;;;;;;;18.23;36.16;100486.31;5077820;28;1439;-62
2022/03/03 10:40:49;;;;;;;;;;;;;;;18.18;36.48;100483.63;5079729;28;822;-62
2022/03/03 10:43:14;;;;;;;;;;;;;;;18.13;36.48;100482.56;5110958;28;1391;-64
2022/03/03 10:45:53;;;;;;;;;;;;;;;18.14;36.57;100494.38;5079393;28;872;-67
2022/03/03 10:48:22;;;;;;;;;;;;;;;18.03;36.73;100477.16;5079455;28;1902;-67
2022/03/03 10:50:47;;;;;;;;;;;;;;;17.92;36.78;100481.13;5079400;28;730;-66
2022/03/03 10:53:15;;;;;;;;;;;;;;;18.03;36.80;100482.66;5079432;28;740;-66
2022/03/03 10:55:45;;;;;;;;;;;;;;;18.04;36.58;100484.31;5079192;28;793;-66
2022/03/03 10:58:11;;;;;;;;;;;;;;;18.07;36.69;100482.91;5077443;28;1215;-65
2022/03/03 11:00:38;;;;;;;;;;;;;;;18.05;36.57;100477.72;5077270;28;1297;-66
2022/03/03 11:03:04;;;;;;;;;;;;;;;18.05;36.51;100471.38;5078197;28;1265;-66
2022/03/03 11:05:30;;;;;;;;;;;;;;;18.03;36.72;100474.41;5078574;28;1352;-65
2022/03/03 11:07:58;;;;;;;;;;;;;;;18.07;36.72;100477.41;5077880;28;1893;-65
2022/03/03 11:10:26;;;;;;;;;;;;;;;18.08;36.59;100476.31;5078642;28;913;-66
2022/03/03 11:12:51;;;;;;;;;;;;;;;18.01;36.82;100473.88;5078502;28;1155;-66
2022/03/03 11:15:18;;;;;;;;;;;;;;;18.00;36.87;100483.25;5076909;28;1221;-67
2022/03/03 11:17:44;;;;;;;;;;;;;;;18.05;36.81;100463.94;5077787;28;1165;-68
2022/03/03 11:20:10;;;;;;;;;;;;;;;17.93;36.72;100472.56;5078597;28;1253;-64
2022/03/03 11:22:36;;;;;;;;;;;;;;;18.03;36.73;100470.84;5078529;28;837;-65
2022/03/03 11:25:02;;;;;;;;;;;;;;;18.01;36.59;100471.13;5078925;28;845;-65
2022/03/03 11:27:33;;;;;;;;;;;;;;;18.00;36.79;100475.00;5078700;28;1910;-66
2022/03/03 11:30:10;;;;;;;;;;;;;;;17.95;36.78;100475.06;5078437;28;765;-66
2022/03/03 11:32:36;;;;;;;;;;;;;;;18.02;36.85;100475.53;5077467;28;873;-66
2022/03/03 11:35:10;;;;;;;;;;;;;;;18.05;36.68;100465.88;5111052;28;811;-67
2022/03/03 11:37:43;;;;;;;;;;;;;;;17.97;36.72;100463.78;5110661;28;1108;-68
2022/03/03 11:40:10;;;;;;;;;;;;;;;18.05;36.71;100472.19;5077775;28;818;-64
2022/03/03 11:42:35;;;;;;;;;;;;;;;18.03;36.75;100470.84;5078370;28;845;-64
2022/03/03 11:45:09;;;;;;;;;;;;;;;18.02;36.61;100474.69;5078387;28;830;-67
2022/03/03 11:47:35;;;;;;;;;;;;;;;17.99;36.98;100472.53;5077945;28;1909;-64
2022/03/03 11:50:03;;;;;;;;;;;;;;;18.04;36.64;100475.25;5071757;28;939;-63
2022/03/03 11:52:28;;;;;;;;;;;;;;;18.02;36.63;100475.53;5071366;28;1361;-63
2022/03/03 11:54:55;;;;;;;;;;;;;;;18.09;36.51;100475.16;5078122;28;822;-63
2022/03/03 11:57:23;;;;;;;;;;;;;;;18.04;36.59;100467.81;5077431;28;1117;-66
2022/03/03 11:59:48;;;;;;;;;;;;;;;17.91;36.75;100463.00;5078125;28;894;-66
2022/03/03 12:02:17;;;;;;;;;;;;;;;17.94;37.05;100467.91;5077885;28;831;-66
2022/03/03 12:04:44;;;;;;;;;;;;;;;17.92;36.79;100462.72;5078296;28;763;-66
2022/03/03 12:07:28;;;;;;;;;;;;;;;17.96;36.65;100454.69;5077827;28;867;-63
2022/03/03 12:09:56;;;;;;;;;;;;;;;17.97;36.69;100466.53;5073200;28;739;-66
2022/03/03 12:12:22;;;;;;;;;;;;;;;18.01;36.62;100468.38;5077479;28;842;-66
2022/03/03 12:14:48;;;;;;;;;;;;;;;17.99;36.71;100467.84;5110119;28;1029;-65
2022/03/03 12:17:32;;;;;;;;;;;;;;;18.02;36.68;100460.94;5077739;28;910;-66
2022/03/03 12:20:17;;;;;;;;;;;;;;;18.06;36.60;100473.84;5076979;28;1251;-66
2022/03/03 12:23:02;;;;;;;;;;;;;;;17.98;36.65;100468.97;5077834;28;1908;-66
2022/03/03 12:25:46;;;;;;;;;;;;;;;17.95;36.70;100464.06;5077765;28;776;-68
2022/03/03 12:28:15;;;;;;;;;;;;;;;17.99;36.97;100459.59;5077301;28;1906;-66
2022/03/03 12:30:44;;;;;;;;;;;;;;;17.97;37.00;100455.50;5077372;28;905;-67
2022/03/03 12:33:10;;;;;;;;;;;;;;;18.01;36.76;100457.38;5077499;28;873;-66
2022/03/03 12:35:35;;;;;;;;;;;;;;;17.95;36.88;100464.06;5110262;28;1586;-68
2022/03/03 12:38:02;;;;;;;;;;;;;;;17.90;36.79;100461.31;5109707;28;809;-66
2022/03/03 12:40:29;;;;;;;;;;;;;;;17.92;36.81;100459.13;5077565;28;845;-66
2022/03/03 12:42:55;;;;;;;;;;;;;;;17.84;37.12;100462.47;5076591;28;1230;-67
2022/03/03 12:45:20;;;;;;;;;;;;;;;17.91;37.05;100463.00;5077502;28;742;-64
2022/03/03 12:47:50;;;;;;;;;;;;;;;17.90;36.87;100461.31;5071577;28;1973;-67
2022/03/03 12:50:25;;;;;;;;;;;;;;;17.81;37.18;100463.88;5076626;28;852;-66
2022/03/03 12:52:58;;;;;;;;;;;;;;;17.82;37.08;100470.19;5076859;28;757;-67